createdAt,value
2022-08-09T00:01:04.805Z,19.26
2022-08-09T00:04:00.592Z,19.24
2022-08-09T00:06:23.669Z,19.22
2022-08-09T00:08:49.989Z,19.23
2022-08-09T00:11:24.849Z,19.21
2022-08-09T00:13:51.686Z,19.20
2022-08-09T00:16:26.416Z,19.20
2022-08-09T00:19:03.227Z,19.20
2022-08-09T00:21:35.829Z,19.20
2022-08-09T00:24:02.021Z,19.21
2022-08-09T00:26:32.301Z,19.19
2022-08-09T00:28:59.377Z,19.20
2022-08-09T00:31:56.972Z,19.21
2022-08-09T00:34:12.335Z,19.21
2022-08-09T00:36:40.132Z,19.22
2022-08-09T00:39:16.986Z,19.22
2022-08-09T00:44:13.947Z,19.22
2022-08-09T00:44:40.395Z,19.21
2022-08-09T00:47:07.623Z,19.21
2022-08-09T00:49:33.842Z,19.21
2022-08-09T00:52:05.047Z,19.20
2022-08-09T00:54:35.855Z,19.18
2022-08-09T00:57:02.747Z,19.15
2022-08-09T00:59:40.948Z,19.15
2022-08-09T01:02:12.084Z,19.17
2022-08-09T01:04:38.315Z,19.17
2022-08-09T01:07:04.495Z,19.19
2022-08-09T01:09:36.754Z,19.19
2022-08-09T01:12:03.235Z,19.19
2022-08-09T01:14:29.432Z,19.19
2022-08-09T01:16:55.618Z,19.19
2022-08-09T01:19:39.820Z,19.20
2022-08-09T01:22:12.392Z,19.20
2022-08-09T01:24:43.937Z,19.20
2022-08-09T01:27:17.901Z,19.19
2022-08-09T01:29:56.457Z,19.19
2022-08-09T01:32:33.406Z,19.18
2022-08-09T01:35:00.561Z,19.15
2022-08-09T01:38:08.161Z,19.13
2022-08-09T01:40:30.478Z,19.14
2022-08-09T01:42:57.813Z,19.14
2022-08-09T01:45:24.026Z,19.13
2022-08-09T01:47:50.304Z,19.13
2022-08-09T01:50:17.803Z,19.12
2022-08-09T01:52:56.213Z,19.11
2022-08-09T01:55:22.464Z,19.11
2022-08-09T01:57:50.812Z,19.11
2022-08-09T02:00:35.845Z,19.11
2022-08-09T02:03:02.415Z,19.11
2022-08-09T02:05:37.987Z,19.11
2022-08-09T02:08:35.815Z,19.12
2022-08-09T02:11:00.987Z,19.14
2022-08-09T02:13:40.227Z,19.13
2022-08-09T02:16:06.707Z,19.15
2022-08-09T02:18:34.919Z,19.16
2022-08-09T02:21:01.138Z,19.16
2022-08-09T02:23:27.361Z,19.17
2022-08-09T02:25:58.323Z,19.18
2022-08-09T02:28:26.283Z,19.17
2022-08-09T02:30:53.577Z,19.17
2022-08-09T02:33:20.310Z,19.15
2022-08-09T02:36:02.516Z,19.13
2022-08-09T02:38:29.857Z,19.13
2022-08-09T02:40:56.151Z,19.13
2022-08-09T02:43:23.326Z,19.14
2022-08-09T02:45:54.974Z,19.12
2022-08-09T02:48:30.759Z,19.11
2022-08-09T02:50:57.938Z,19.12
2022-08-09T02:53:26.300Z,19.11
2022-08-09T02:55:58.233Z,19.13
2022-08-09T02:58:35.388Z,19.12
2022-08-09T03:01:04.177Z,19.09
2022-08-09T03:04:18.011Z,19.07
2022-08-09T03:06:17.119Z,19.05
2022-08-09T03:08:43.377Z,19.05
2022-08-09T03:11:10.371Z,19.04
2022-08-09T03:13:43.283Z,19.03
2022-08-09T03:16:22.861Z,19.04
2022-08-09T03:18:52.978Z,19.05
2022-08-09T03:21:25.819Z,19.06
2022-08-09T03:24:03.765Z,19.06
2022-08-09T03:26:32.154Z,19.05
2022-08-09T03:28:58.493Z,19.03
2022-08-09T03:31:24.693Z,19.04
2022-08-09T03:33:54.345Z,19.03
2022-08-09T03:36:21.241Z,19.04
2022-08-09T03:38:54.062Z,19.04
2022-08-09T03:41:20.311Z,19.04
2022-08-09T03:44:07.859Z,19.02
2022-08-09T03:46:35.244Z,19.03
2022-08-09T03:49:04.084Z,19.01
2022-08-09T03:51:57.535Z,19.01
2022-08-09T03:54:29.330Z,19.01
2022-08-09T03:56:57.815Z,19.02
2022-08-09T03:59:27.187Z,19.01
2022-08-09T04:01:59.512Z,18.98
2022-08-09T04:04:25.759Z,18.97
2022-08-09T04:06:58.858Z,18.98
2022-08-09T04:09:47.389Z,18.98
2022-08-09T04:12:12.043Z,18.96
2022-08-09T04:15:02.147Z,18.95
2022-08-09T04:17:37.913Z,18.95
2022-08-09T04:20:05.644Z,18.94
2022-08-09T04:22:33.763Z,18.91
2022-08-09T04:25:00.094Z,18.92
2022-08-09T04:27:28.978Z,18.91
2022-08-09T04:29:55.379Z,18.94
2022-08-09T04:32:31.506Z,18.92
2022-08-09T04:35:01.335Z,18.90
2022-08-09T04:37:45.156Z,18.90
2022-08-09T04:40:12.289Z,18.89
2022-08-09T04:42:45.992Z,18.88
2022-08-09T04:45:14.859Z,18.87
2022-08-09T04:47:59.264Z,18.87
2022-08-09T04:50:33.714Z,18.87
2022-08-09T04:53:03.911Z,18.87
2022-08-09T04:55:39.631Z,18.86
2022-08-09T04:58:09.244Z,18.86
2022-08-09T05:00:36.178Z,18.88
2022-08-09T05:03:12.770Z,18.89
2022-08-09T05:05:52.019Z,18.91
2022-08-09T05:08:30.531Z,18.91
2022-08-09T05:10:57.336Z,18.93
2022-08-09T05:13:27.295Z,18.95
2022-08-09T05:15:56.786Z,18.95
2022-08-09T05:18:57.409Z,19.00
2022-08-09T05:21:13.412Z,19.00
2022-08-09T05:23:54.237Z,19.02
2022-08-09T05:26:35.939Z,19.05
2022-08-09T05:29:03.655Z,19.08
2022-08-09T05:31:44.196Z,19.08
2022-08-09T05:34:16.962Z,19.09
2022-08-09T05:36:43.879Z,19.14
2022-08-09T05:39:13.163Z,19.17
2022-08-09T05:41:39.505Z,19.17
2022-08-09T05:44:06.563Z,19.17
2022-08-09T05:46:32.730Z,19.20
2022-08-09T05:48:59.354Z,19.24
2022-08-09T05:51:42.828Z,19.29
2022-08-09T05:54:12.390Z,19.33
2022-08-09T05:56:38.772Z,19.39
2022-08-09T05:59:20.973Z,19.47
2022-08-09T06:01:47.471Z,19.49
2022-08-09T06:04:14.638Z,19.52
2022-08-09T06:06:50.239Z,19.60
2022-08-09T06:09:23.133Z,19.66
2022-08-09T06:12:04.260Z,19.75
2022-08-09T06:14:30.520Z,19.80
2022-08-09T06:16:57.197Z,19.88
2022-08-09T06:19:23.752Z,20.00
2022-08-09T06:21:58.616Z,20.07
2022-08-09T06:24:25.188Z,20.12
2022-08-09T06:26:51.433Z,20.19
2022-08-09T06:29:17.747Z,20.25
2022-08-09T06:32:08.812Z,20.33
2022-08-09T06:34:33.907Z,20.38
2022-08-09T06:37:00.278Z,20.48
2022-08-09T06:39:39.652Z,20.60
2022-08-09T06:42:12.863Z,20.64
2022-08-09T06:44:39.062Z,20.69
2022-08-09T06:47:05.285Z,20.75
2022-08-09T06:50:11.596Z,20.84
2022-08-09T06:52:29.654Z,20.93
2022-08-09T06:54:55.979Z,21.02
2022-08-09T06:57:42.605Z,21.09
2022-08-09T07:00:55.745Z,21.13
2022-08-09T07:02:54.780Z,21.25
2022-08-09T07:05:21.043Z,21.33
2022-08-09T07:07:59.682Z,21.39
2022-08-09T07:10:29.359Z,21.45
2022-08-09T07:12:58.345Z,21.53
2022-08-09T07:16:36.695Z,21.67
2022-08-09T07:18:10.942Z,21.76
2022-08-09T07:20:40.607Z,21.82
2022-08-09T07:23:18.910Z,21.94
2022-08-09T07:25:45.913Z,22.06
2022-08-09T07:28:19.399Z,22.22
2022-08-09T07:30:52.693Z,22.40
2022-08-09T07:33:18.911Z,22.51
2022-08-09T07:35:53.897Z,22.59
2022-08-09T07:38:20.937Z,22.63
2022-08-09T07:40:54.074Z,22.66
2022-08-09T07:43:41.363Z,22.70
2022-08-09T07:46:20.617Z,22.78
2022-08-09T07:48:46.865Z,22.88
2022-08-09T07:52:05.143Z,22.90
2022-08-09T07:54:11.556Z,22.98
2022-08-09T07:56:48.947Z,23.03
2022-08-09T07:59:34.714Z,23.08
2022-08-09T08:02:02.586Z,23.08
2022-08-09T08:04:31.497Z,23.12
2022-08-09T08:07:00.107Z,23.18
2022-08-09T08:09:38.554Z,23.25
2022-08-09T08:12:27.845Z,23.29
2022-08-09T08:14:54.813Z,23.24
2022-08-09T08:17:35.438Z,23.27
2022-08-09T08:20:12.953Z,23.29
2022-08-09T08:22:39.829Z,23.34
2022-08-09T08:25:13.194Z,23.33
2022-08-09T08:27:40.740Z,23.35
2022-08-09T08:30:07.338Z,23.40
2022-08-09T08:32:37.616Z,23.47
2022-08-09T08:35:19.185Z,23.54
2022-08-09T08:38:04.472Z,23.60
2022-08-09T08:40:31.617Z,23.64
2022-08-09T08:42:58.708Z,23.68
2022-08-09T08:45:37.493Z,23.73
2022-08-09T08:48:05.321Z,23.81
2022-08-09T08:50:31.641Z,23.87
2022-08-09T08:53:00.512Z,23.92
2022-08-09T08:55:27.162Z,23.96
2022-08-09T08:57:56.466Z,23.97
2022-08-09T09:00:27.863Z,24.02
2022-08-09T09:02:57.328Z,24.09
2022-08-09T09:05:42.086Z,24.14
2022-08-09T09:08:30.710Z,24.20
2022-08-09T09:10:57.926Z,24.26
2022-08-09T09:13:24.101Z,24.31
2022-08-09T09:16:08.063Z,24.32
2022-08-09T09:18:34.289Z,24.38
2022-08-09T09:21:00.525Z,24.42
2022-08-09T09:23:37.764Z,24.43
2022-08-09T09:26:12.028Z,24.46
2022-08-09T09:29:01.732Z,24.51
2022-08-09T09:32:03.974Z,24.54
2022-08-09T09:34:11.443Z,24.59
2022-08-09T09:36:46.673Z,24.65
2022-08-09T09:39:20.002Z,24.71
2022-08-09T09:41:49.003Z,24.72
2022-08-09T09:44:15.935Z,24.80
2022-08-09T09:46:52.776Z,24.86
2022-08-09T09:49:19.263Z,24.92
2022-08-09T09:51:58.241Z,24.97
2022-08-09T09:54:26.867Z,25.03
2022-08-09T09:58:03.628Z,25.11
2022-08-09T09:59:42.524Z,25.18
2022-08-09T10:02:10.134Z,25.23
2022-08-09T10:04:37.427Z,25.29
2022-08-09T10:07:09.758Z,25.33
2022-08-09T10:09:36.541Z,25.41
2022-08-09T10:12:14.436Z,25.47
2022-08-09T10:14:51.632Z,25.55
2022-08-09T10:17:40.304Z,25.64
2022-08-09T10:20:04.430Z,25.70
2022-08-09T10:22:32.714Z,25.73
2022-08-09T10:24:59.796Z,25.77
2022-08-09T10:27:38.534Z,25.89
2022-08-09T10:30:43.581Z,26.02
2022-08-09T10:32:51.908Z,26.18
2022-08-09T10:35:18.430Z,26.29
2022-08-09T10:37:46.582Z,26.35
2022-08-09T10:40:34.958Z,26.49
2022-08-09T10:42:59.133Z,26.64
2022-08-09T10:45:31.897Z,26.68
2022-08-09T10:48:19.579Z,26.75
2022-08-09T10:50:48.128Z,26.70
2022-08-09T10:53:15.145Z,26.64
2022-08-09T10:55:58.046Z,26.56
2022-08-09T10:58:25.449Z,26.51
2022-08-09T11:03:06.875Z,26.47
2022-08-09T11:03:53.127Z,26.48
2022-08-09T11:06:22.895Z,26.58
2022-08-09T11:08:53.382Z,26.67
2022-08-09T11:11:20.652Z,26.78
2022-08-09T11:13:50.806Z,26.96
2022-08-09T11:16:35.181Z,27.20
2022-08-09T11:19:09.788Z,27.39
2022-08-09T11:21:37.258Z,27.49
2022-08-09T11:24:07.907Z,27.51
2022-08-09T11:26:37.671Z,27.54
2022-08-09T11:29:07.074Z,27.49
2022-08-09T11:31:36.824Z,27.41
2022-08-09T11:34:03.254Z,27.38
2022-08-09T11:36:35.372Z,27.44
2022-08-09T11:39:02.211Z,27.61
2022-08-09T11:41:38.461Z,27.74
2022-08-09T11:44:06.651Z,27.81
2022-08-09T11:46:33.724Z,27.93
2022-08-09T11:49:00.162Z,28.03
2022-08-09T11:53:02.418Z,28.20
2022-08-09T11:54:13.582Z,28.38
2022-08-09T11:56:42.248Z,28.43
2022-08-09T11:59:13.726Z,28.48
2022-08-09T12:02:34.591Z,28.52
2022-08-09T12:04:28.869Z,28.58
2022-08-09T12:06:58.907Z,28.66
2022-08-09T12:09:25.909Z,28.71
2022-08-09T12:12:02.636Z,28.65
2022-08-09T12:14:40.448Z,28.54
2022-08-09T12:17:34.586Z,28.39
2022-08-09T12:20:02.909Z,28.26
2022-08-09T12:22:30.753Z,28.22
2022-08-09T12:24:57.167Z,28.25
2022-08-09T12:29:15.030Z,28.22
2022-08-09T12:30:38.418Z,28.33
2022-08-09T12:32:57.058Z,28.60
2022-08-09T12:35:24.033Z,28.79
2022-08-09T12:37:51.748Z,28.93
2022-08-09T12:40:19.036Z,29.00
2022-08-09T12:42:45.437Z,29.08
2022-08-09T12:45:34.006Z,29.15
2022-08-09T12:47:58.338Z,29.25
2022-08-09T12:50:25.137Z,29.36
2022-08-09T12:53:09.266Z,29.53
2022-08-09T12:56:14.458Z,29.67
2022-08-09T12:58:28.216Z,29.64
2022-08-09T13:00:54.646Z,29.74
2022-08-09T13:03:24.546Z,29.85
2022-08-09T13:06:16.056Z,29.77
2022-08-09T13:08:49.118Z,29.79
2022-08-09T13:11:23.339Z,29.73
2022-08-09T13:14:36.824Z,29.58
2022-08-09T13:16:38.503Z,29.58
2022-08-09T13:19:04.670Z,29.50
2022-08-09T13:22:37.219Z,29.42
2022-08-09T13:24:53.696Z,29.39
2022-08-09T13:27:08.613Z,29.39
2022-08-09T13:30:03.141Z,29.53
2022-08-09T13:32:27.567Z,29.73
2022-08-09T13:35:04.579Z,29.97
2022-08-09T13:37:52.436Z,30.11
2022-08-09T13:41:45.910Z,30.30
2022-08-09T13:43:05.493Z,30.46
2022-08-09T13:46:42.298Z,30.67
2022-08-09T13:48:22.554Z,30.69
2022-08-09T13:50:50.984Z,30.62
2022-08-09T13:53:17.198Z,30.61
2022-08-09T13:55:44.897Z,30.58
2022-08-09T13:58:14.196Z,30.47
2022-08-09T14:00:46.808Z,30.30
2022-08-09T14:04:03.924Z,30.17
2022-08-09T14:06:03.209Z,29.89
2022-08-09T14:08:38.126Z,29.67
2022-08-09T14:11:09.866Z,29.50
2022-08-09T14:14:23.002Z,29.31
2022-08-09T14:16:29.127Z,29.06
2022-08-09T14:18:55.371Z,28.99
2022-08-09T14:21:24.511Z,28.93
2022-08-09T14:23:56.897Z,28.89
2022-08-09T14:26:23.669Z,28.81
2022-08-09T14:28:51.704Z,28.71
2022-08-09T14:31:17.912Z,28.60
2022-08-09T14:33:52.216Z,28.63
2022-08-09T14:36:21.169Z,28.67
2022-08-09T14:38:47.444Z,28.70
2022-08-09T14:41:34.443Z,28.75
2022-08-09T14:44:05.307Z,28.89
2022-08-09T14:46:54.917Z,28.95
2022-08-09T14:49:19.355Z,29.04
2022-08-09T14:51:49.948Z,29.16
2022-08-09T14:54:16.367Z,29.29
2022-08-09T14:56:58.259Z,29.42
2022-08-09T14:59:25.331Z,29.57
2022-08-09T15:01:53.459Z,29.55
2022-08-09T15:04:19.826Z,29.58
2022-08-09T15:06:49.926Z,29.70
2022-08-09T15:10:04.050Z,29.73
2022-08-09T15:12:03.670Z,29.71
2022-08-09T15:14:34.007Z,29.62
2022-08-09T15:17:00.532Z,29.46
2022-08-09T15:19:30.960Z,29.24
2022-08-09T15:22:03.003Z,29.07
2022-08-09T15:24:29.389Z,28.93
2022-08-09T15:26:55.589Z,28.84
2022-08-09T15:30:55.874Z,28.79
2022-08-09T15:32:38.987Z,28.66
2022-08-09T15:34:54.378Z,28.54
2022-08-09T15:37:20.597Z,28.41
2022-08-09T15:39:54.909Z,28.39
2022-08-09T15:42:21.907Z,28.29
2022-08-09T15:44:48.179Z,28.16
2022-08-09T15:47:23.600Z,28.14
2022-08-09T15:50:04.149Z,28.09
2022-08-09T15:52:31.902Z,28.02
2022-08-09T15:54:58.282Z,27.97
2022-08-09T15:57:35.951Z,27.94
2022-08-09T16:00:10.974Z,27.87
2022-08-09T16:02:40.646Z,27.83
2022-08-09T16:05:07.088Z,27.79
2022-08-09T16:07:39.504Z,27.70
2022-08-09T16:10:06.075Z,27.60
2022-08-09T16:12:41.466Z,27.54
2022-08-09T16:16:11.625Z,27.51
2022-08-09T16:18:02.897Z,27.49
2022-08-09T16:20:30.177Z,27.49
2022-08-09T16:22:56.648Z,27.44
2022-08-09T16:25:37.050Z,27.42
2022-08-09T16:28:06.718Z,27.33
2022-08-09T16:30:32.953Z,27.31
2022-08-09T16:32:59.216Z,27.23
2022-08-09T16:35:55.693Z,27.19
2022-08-09T16:38:13.951Z,27.12
2022-08-09T16:40:44.116Z,27.09
2022-08-09T16:43:11.974Z,27.03
2022-08-09T16:45:43.749Z,26.98
2022-08-09T16:48:40.518Z,27.01
2022-08-09T16:50:59.141Z,27.05
2022-08-09T16:53:26.816Z,27.08
2022-08-09T16:56:03.580Z,27.09
2022-08-09T16:58:35.885Z,27.13
2022-08-09T17:01:03.089Z,27.08
2022-08-09T17:03:30.180Z,27.02
2022-08-09T17:06:03.450Z,26.99
2022-08-09T17:08:44.098Z,26.99
2022-08-09T17:11:15.216Z,27.02
2022-08-09T17:13:41.635Z,27.01
2022-08-09T17:16:11.509Z,27.02
2022-08-09T17:18:38.587Z,27.02
2022-08-09T17:21:05.091Z,26.99
2022-08-09T17:24:21.039Z,26.96
2022-08-09T17:26:31.582Z,26.93
2022-08-09T17:29:04.100Z,26.88
2022-08-09T17:31:30.316Z,26.86
2022-08-09T17:34:05.298Z,26.83
2022-08-09T17:36:53.388Z,26.81
2022-08-09T17:39:19.970Z,26.81
2022-08-09T17:41:51.383Z,26.78
2022-08-09T17:44:38.659Z,26.74
2022-08-09T17:47:05.012Z,26.72
2022-08-09T17:49:36.601Z,26.69
2022-08-09T17:52:22.076Z,26.65
2022-08-09T17:54:49.058Z,26.61
2022-08-09T17:57:20.536Z,26.56
2022-08-09T18:00:05.609Z,26.50
2022-08-09T18:02:34.101Z,26.45
2022-08-09T18:05:00.409Z,26.38
2022-08-09T18:07:26.833Z,26.31
2022-08-09T18:10:04.003Z,26.26
2022-08-09T18:13:38.269Z,26.20
2022-08-09T18:15:17.694Z,26.17
2022-08-09T18:18:02.829Z,26.08
2022-08-09T18:20:56.083Z,25.98
2022-08-09T18:24:09.999Z,25.89
2022-08-09T18:26:02.477Z,25.79
2022-08-09T18:30:42.605Z,25.69
2022-08-09T18:31:15.186Z,25.61
2022-08-09T18:33:53.752Z,25.53
2022-08-09T18:36:32.165Z,25.43
2022-08-09T18:39:02.771Z,25.36
2022-08-09T18:41:29.397Z,25.29
2022-08-09T18:44:03.365Z,25.18
2022-08-09T18:46:51.019Z,25.09
2022-08-09T18:49:15.943Z,25.01
2022-08-09T18:51:54.946Z,24.92
2022-08-09T18:54:29.535Z,24.82
2022-08-09T18:56:56.477Z,24.74
2022-08-09T18:59:48.420Z,24.67
2022-08-09T19:02:15.921Z,24.61
2022-08-09T19:04:47.275Z,24.54
2022-08-09T19:07:14.464Z,24.46
2022-08-09T19:10:16.753Z,24.39
2022-08-09T19:12:29.015Z,24.29
2022-08-09T19:14:55.447Z,24.23
2022-08-09T19:17:22.769Z,24.17
2022-08-09T19:19:48.980Z,24.13
2022-08-09T19:22:15.266Z,24.06
2022-08-09T19:25:09.027Z,24.00
2022-08-09T19:27:29.290Z,23.94
2022-08-09T19:30:22.404Z,23.86
2022-08-09T19:32:41.857Z,23.81
2022-08-09T19:35:08.024Z,23.75
2022-08-09T19:37:54.747Z,23.69
2022-08-09T19:40:20.550Z,23.64
2022-08-09T19:42:47.335Z,23.59
2022-08-09T19:45:13.807Z,23.54
2022-08-09T19:47:40.002Z,23.48
2022-08-09T19:50:47.161Z,23.42
2022-08-09T19:52:52.530Z,23.36
2022-08-09T19:55:19.508Z,23.29
2022-08-09T19:57:51.656Z,23.20
2022-08-09T20:00:18.495Z,23.12
2022-08-09T20:04:10.484Z,23.05
2022-08-09T20:05:32.633Z,22.97
2022-08-09T20:08:16.222Z,22.91
2022-08-09T20:11:00.724Z,22.83
2022-08-09T20:13:30.520Z,22.76
2022-08-09T20:16:37.095Z,22.72
2022-08-09T20:19:03.766Z,22.63
2022-08-09T20:21:54.666Z,22.55
2022-08-09T20:24:19.445Z,22.50
2022-08-09T20:26:56.146Z,22.42
2022-08-09T20:29:24.655Z,22.37
2022-08-09T20:32:29.689Z,22.31
2022-08-09T20:34:50.161Z,22.25
2022-08-09T20:37:17.685Z,22.23
2022-08-09T20:40:15.654Z,22.18
2022-08-09T20:42:34.431Z,22.12
2022-08-09T20:45:58.716Z,22.07
2022-08-09T20:47:50.283Z,22.04
2022-08-09T20:50:47.104Z,22.02
2022-08-09T20:53:03.835Z,21.98
2022-08-09T20:58:08.454Z,21.87
2022-08-09T21:00:31.198Z,21.82
2022-08-09T21:02:59.655Z,21.75
2022-08-09T21:05:51.900Z,21.70
2022-08-09T21:08:12.957Z,21.63
2022-08-09T21:10:39.949Z,21.60
2022-08-09T21:13:07.924Z,21.53
2022-08-09T21:15:39.011Z,21.49
2022-08-09T21:18:24.470Z,21.45
2022-08-09T21:20:54.487Z,21.40
2022-08-09T21:23:36.019Z,21.37
2022-08-09T21:26:09.172Z,21.32
2022-08-09T21:28:37.232Z,21.27
2022-08-09T21:31:16.417Z,21.24
2022-08-09T21:33:46.132Z,21.21
2022-08-09T21:36:19.046Z,21.16
2022-08-09T21:38:45.667Z,21.10
2022-08-09T21:41:21.688Z,21.05
2022-08-09T21:44:09.561Z,21.01
2022-08-09T21:46:36.445Z,20.96
2022-08-09T21:49:03.819Z,20.92
2022-08-09T21:51:36.287Z,20.86
2022-08-09T21:54:10.551Z,20.82
2022-08-09T21:56:44.833Z,20.77
2022-08-09T21:59:23.398Z,20.72
2022-08-09T22:02:00.917Z,20.66
2022-08-09T22:04:55.063Z,20.61
2022-08-09T22:07:23.398Z,20.54
2022-08-09T22:10:01.854Z,20.49
2022-08-09T22:12:31.259Z,20.48
2022-08-09T22:14:59.466Z,20.46
2022-08-09T22:17:27.650Z,20.43
2022-08-09T22:20:00.099Z,20.39
2022-08-09T22:22:27.549Z,20.35
2022-08-09T22:26:06.707Z,20.30
2022-08-09T22:27:40.747Z,20.26
2022-08-09T22:30:11.612Z,20.23
2022-08-09T22:32:38.159Z,20.19
2022-08-09T22:35:06.065Z,20.17
2022-08-09T22:37:40.028Z,20.15
2022-08-09T22:40:08.614Z,20.11
2022-08-09T22:42:35.219Z,20.08
2022-08-09T22:48:12.116Z,20.05
2022-08-09T22:48:16.880Z,20.00
2022-08-09T22:50:36.312Z,19.95
2022-08-09T22:53:03.723Z,19.91
2022-08-09T22:56:06.175Z,19.83
2022-08-09T22:58:31.019Z,19.79
2022-08-09T23:00:59.928Z,19.74
2022-08-09T23:03:31.207Z,19.72
2022-08-09T23:06:14.528Z,19.68
2022-08-09T23:08:59.426Z,19.65
2022-08-09T23:11:26.014Z,19.63
2022-08-09T23:13:53.573Z,19.61
2022-08-09T23:16:22.898Z,19.59
2022-08-09T23:18:50.798Z,19.55
2022-08-09T23:21:25.267Z,19.50
2022-08-09T23:24:05.225Z,19.47
2022-08-09T23:26:33.417Z,19.42
2022-08-09T23:29:00.020Z,19.37
2022-08-09T23:31:26.606Z,19.34
2022-08-09T23:33:54.528Z,19.30
2022-08-09T23:36:21.155Z,19.23
2022-08-09T23:38:48.450Z,19.20
2022-08-09T23:41:27.506Z,19.14
2022-08-09T23:43:55.133Z,19.09
2022-08-09T23:46:21.911Z,19.06
2022-08-09T23:48:48.508Z,19.01
2022-08-09T23:51:16.435Z,18.98
2022-08-09T23:53:43.100Z,18.95
2022-08-09T23:56:09.714Z,18.91
2022-08-09T23:58:36.253Z,18.87
